createdAt,value
2018-02-24T14:19:23.793Z,1023.42
2018-02-24T14:20:32.392Z,1023.51
2018-02-24T14:21:41.310Z,1023.44
2018-02-24T14:22:50.336Z,1023.48
2018-02-24T14:23:59.859Z,1023.41
2018-02-24T14:25:09.076Z,1023.44
2018-02-24T14:26:18.501Z,1023.41
2018-02-24T15:25:56.990Z,1023.97
2018-02-24T15:28:05.848Z,1024.11
2018-02-24T15:29:37.426Z,1024.05
2018-02-24T15:31:09.774Z,1024.00
2018-02-24T15:33:17.533Z,1024.14
2018-02-24T15:35:49.507Z,1024.19
2018-02-24T15:39:13.006Z,1024.20
2018-02-24T15:40:43.540Z,1024.23
2018-02-24T15:43:50.665Z,1024.31
2018-02-24T15:45:21.907Z,1024.29
2018-02-24T16:14:12.639Z,1024.51
2018-02-24T16:15:21.585Z,1024.48
2018-02-24T16:16:27.115Z,1024.61
2018-02-24T16:17:32.696Z,1024.65
2018-02-24T16:18:38.039Z,1024.60
2018-02-24T16:19:43.301Z,1024.66
2018-02-24T16:20:50.745Z,1024.65
2018-02-24T16:21:56.344Z,1024.65
2018-02-24T16:23:02.124Z,1024.64
2018-02-24T16:24:07.460Z,1024.68
2018-02-24T16:25:13.132Z,1024.67
2018-02-24T16:26:18.326Z,1024.65
2018-02-24T16:27:23.688Z,1024.63
2018-02-24T16:28:29.357Z,1024.60
2018-02-24T16:29:34.977Z,1024.68
2018-02-24T16:30:40.218Z,1024.72
2018-02-24T16:31:46.721Z,1024.71
2018-02-24T16:32:51.987Z,1024.72
2018-02-24T16:33:57.702Z,1024.74
2018-02-24T16:35:03.038Z,1024.70
2018-02-24T16:36:08.234Z,1024.73
2018-02-24T16:37:13.447Z,1024.72
2018-02-24T16:38:18.721Z,1024.69
2018-02-24T16:39:24.049Z,1024.76
2018-02-24T16:40:29.942Z,1024.74
2018-02-24T16:41:36.029Z,1024.81
2018-02-24T16:42:41.427Z,1024.75
2018-02-24T16:43:46.776Z,1024.84
2018-02-24T16:44:57.040Z,1024.83
2018-02-24T16:46:02.423Z,1024.77
2018-02-24T16:47:07.838Z,1024.85
2018-02-24T16:48:15.029Z,1024.80
2018-02-24T16:49:28.107Z,1024.94
2018-02-24T16:50:43.389Z,1024.84
2018-02-24T16:51:56.370Z,1024.91
2018-02-24T16:53:09.926Z,1024.89
2018-02-24T16:54:21.270Z,1024.95
2018-02-24T16:55:35.352Z,1024.94
2018-02-24T16:56:48.527Z,1024.99
2018-02-24T16:58:00.875Z,1025.04
2018-02-24T16:59:16.347Z,1025.01
2018-02-24T17:00:30.066Z,1025.03
2018-02-24T17:01:44.910Z,1025.08
2018-02-24T17:03:00.017Z,1025.06
2018-02-24T17:04:14.209Z,1025.02
2018-02-24T17:05:29.086Z,1025.08
2018-02-24T17:06:49.386Z,1025.12
2018-02-24T17:08:02.376Z,1025.11
2018-02-24T17:09:15.388Z,1025.08
2018-02-24T17:10:27.623Z,1025.11
2018-02-24T17:11:40.370Z,1025.11
2018-02-24T17:12:52.788Z,1025.12
2018-02-24T17:14:04.527Z,1025.13
2018-02-24T17:15:16.647Z,1025.14
2018-02-24T17:16:29.794Z,1025.02
2018-02-24T17:17:42.328Z,1025.25
2018-02-24T17:18:54.259Z,1025.24
2018-02-24T17:20:06.551Z,1025.25
2018-02-24T17:21:18.049Z,1025.24
2018-02-24T17:22:31.548Z,1025.22
2018-02-24T17:23:43.029Z,1025.26
2018-02-24T17:24:54.885Z,1025.29
2018-02-24T17:26:07.868Z,1025.31
2018-02-24T17:27:23.541Z,1025.32
2018-02-24T17:28:39.435Z,1025.33
2018-02-24T17:29:52.411Z,1025.29
2018-02-24T17:31:04.241Z,1025.26
2018-02-24T17:32:15.871Z,1025.34
2018-02-24T17:33:31.124Z,1025.35
2018-02-24T17:34:50.601Z,1025.28
2018-02-24T17:36:04.222Z,1025.31
2018-02-24T17:38:00.498Z,1025.28
